createdAt,value
2019-01-20T00:01:05.448Z,6.30
2019-01-20T00:03:34.500Z,6.40
2019-01-20T00:06:03.529Z,6.60
2019-01-20T00:08:32.586Z,6.87
2019-01-20T00:11:01.610Z,6.27
2019-01-20T00:13:30.656Z,7.07
2019-01-20T00:15:59.965Z,7.40
2019-01-20T00:18:29.417Z,7.50
2019-01-20T00:20:58.502Z,6.73
2019-01-20T00:23:27.551Z,6.23
2019-01-20T00:25:56.808Z,6.70
2019-01-20T00:28:25.850Z,7.30
2019-01-20T00:30:54.877Z,7.70
2019-01-20T00:33:23.928Z,6.90
2019-01-20T00:35:52.952Z,7.00
2019-01-20T00:38:22.005Z,7.00
2019-01-20T00:40:51.050Z,6.90
2019-01-20T00:43:20.089Z,6.30
2019-01-20T00:45:49.458Z,5.47
2019-01-20T00:48:19.194Z,6.20
2019-01-20T00:50:48.213Z,6.57
2019-01-20T00:53:17.257Z,6.60
2019-01-20T00:55:47.380Z,6.13
2019-01-20T00:58:16.428Z,6.53
2019-01-20T01:00:45.485Z,6.70
2019-01-20T01:03:14.508Z,6.97
2019-01-20T01:05:43.814Z,6.27
2019-01-20T01:08:12.916Z,5.90
2019-01-20T01:10:42.246Z,6.40
2019-01-20T01:13:11.371Z,6.80
2019-01-20T01:15:41.126Z,6.20
2019-01-20T01:18:11.350Z,6.40
2019-01-20T01:20:40.401Z,6.27
2019-01-20T01:23:09.412Z,6.60
2019-01-20T01:25:38.465Z,5.90
2019-01-20T01:28:07.486Z,5.80
2019-01-20T01:30:36.522Z,7.27
2019-01-20T01:33:05.573Z,5.37
2019-01-20T01:35:34.609Z,5.80
2019-01-20T01:38:03.638Z,5.83
2019-01-20T01:40:32.681Z,5.57
2019-01-20T01:43:01.723Z,5.73
2019-01-20T01:45:30.757Z,5.60
2019-01-20T01:48:00.093Z,5.97
2019-01-20T01:50:29.142Z,6.30
2019-01-20T01:52:58.195Z,5.97
2019-01-20T01:55:27.236Z,6.17
2019-01-20T01:57:56.189Z,5.90
2019-01-20T02:00:25.266Z,5.17
2019-01-20T02:02:54.281Z,5.90
2019-01-20T02:05:23.287Z,6.13
2019-01-20T02:07:52.323Z,6.30
2019-01-20T02:10:22.814Z,5.50
2019-01-20T02:12:52.461Z,5.80
2019-01-20T02:15:22.213Z,6.00
2019-01-20T02:17:51.232Z,6.10
2019-01-20T02:20:22.297Z,5.77
2019-01-20T02:22:51.337Z,6.40
2019-01-20T02:25:20.397Z,6.20
2019-01-20T02:27:51.333Z,5.90
2019-01-20T02:30:26.029Z,6.43
2019-01-20T02:32:55.048Z,6.47
2019-01-20T02:35:24.085Z,6.00
2019-01-20T02:37:53.150Z,5.83
2019-01-20T02:40:22.198Z,6.30
2019-01-20T02:42:52.693Z,5.50
2019-01-20T02:45:21.739Z,5.97
2019-01-20T02:47:50.775Z,5.80
2019-01-20T02:50:19.861Z,6.40
2019-01-20T02:52:48.819Z,5.80
2019-01-20T02:55:17.840Z,6.00
2019-01-20T02:57:46.884Z,6.53
2019-01-20T03:00:18.850Z,6.60
2019-01-20T03:02:47.905Z,5.77
2019-01-20T03:05:17.202Z,6.07
2019-01-20T03:07:46.258Z,5.57
2019-01-20T03:10:16.007Z,5.83
2019-01-20T03:12:45.049Z,6.03
2019-01-20T03:15:14.307Z,6.50
2019-01-20T03:17:43.324Z,5.30
2019-01-20T03:20:18.035Z,6.10
2019-01-20T03:22:47.095Z,5.87
2019-01-20T03:25:16.585Z,5.77
2019-01-20T03:27:45.709Z,5.47
2019-01-20T03:30:19.462Z,5.70
2019-01-20T03:32:49.242Z,5.80
2019-01-20T03:35:21.826Z,5.67
2019-01-20T03:37:50.869Z,6.00
2019-01-20T03:40:20.725Z,5.77
2019-01-20T03:42:49.997Z,5.80
2019-01-20T03:45:19.337Z,6.60
2019-01-20T03:47:48.498Z,5.57
2019-01-20T03:50:17.593Z,6.20
2019-01-20T03:52:46.670Z,5.93
2019-01-20T03:55:16.452Z,5.63
2019-01-20T03:57:45.628Z,5.60
2019-01-20T04:00:17.349Z,6.83
2019-01-20T04:02:48.458Z,5.30
2019-01-20T04:05:17.577Z,5.13
2019-01-20T04:07:46.681Z,5.73
2019-01-20T04:10:15.756Z,5.87
2019-01-20T04:12:45.685Z,6.20
2019-01-20T04:15:14.957Z,5.40
2019-01-20T04:17:44.062Z,5.63
2019-01-20T04:20:13.728Z,5.73
2019-01-20T04:22:43.001Z,5.80
2019-01-20T04:25:13.289Z,5.67
2019-01-20T04:27:42.280Z,5.50
2019-01-20T04:30:13.336Z,5.90
2019-01-20T04:32:42.980Z,5.17
2019-01-20T04:35:12.325Z,5.50
2019-01-20T04:37:41.361Z,5.10
2019-01-20T04:40:13.092Z,5.90
2019-01-20T04:42:42.085Z,6.73
2019-01-20T04:45:11.953Z,4.70
2019-01-20T04:47:40.964Z,5.70
2019-01-20T04:50:12.312Z,6.17
2019-01-20T04:52:41.333Z,5.10
2019-01-20T04:55:11.698Z,5.50
2019-01-20T04:57:40.996Z,5.37
2019-01-20T05:00:13.376Z,5.70
2019-01-20T05:02:42.398Z,5.07
2019-01-20T05:05:11.437Z,5.43
2019-01-20T05:07:40.466Z,5.73
2019-01-20T05:10:11.112Z,5.70
2019-01-20T05:12:40.132Z,6.20
2019-01-20T05:15:11.332Z,5.30
2019-01-20T05:17:40.453Z,5.43
2019-01-20T05:20:09.681Z,5.67
2019-01-20T05:22:38.732Z,5.30
2019-01-20T05:25:08.176Z,5.57
2019-01-20T05:27:38.261Z,5.33
2019-01-20T05:30:13.101Z,5.80
2019-01-20T05:32:42.157Z,5.70
2019-01-20T05:35:12.379Z,6.77
2019-01-20T05:37:41.409Z,5.50
2019-01-20T05:40:11.735Z,5.40
2019-01-20T05:42:45.969Z,5.60
2019-01-20T05:45:14.121Z,5.17
2019-01-20T05:47:45.397Z,5.13
2019-01-20T05:50:15.876Z,5.27
2019-01-20T05:52:45.063Z,5.50
2019-01-20T05:55:14.653Z,5.17
2019-01-20T05:57:44.213Z,6.60
2019-01-20T06:00:21.487Z,6.00
2019-01-20T06:02:50.520Z,5.20
2019-01-20T06:05:19.498Z,5.60
2019-01-20T06:07:48.433Z,4.97
2019-01-20T06:10:17.438Z,5.70
2019-01-20T06:12:53.644Z,5.57
2019-01-20T06:15:18.602Z,5.60
2019-01-20T06:17:47.663Z,5.47
2019-01-20T06:20:17.226Z,5.07
2019-01-20T06:22:46.504Z,5.20
2019-01-20T06:25:15.536Z,5.63
2019-01-20T06:27:44.593Z,5.50
2019-01-20T06:30:24.642Z,5.90
2019-01-20T06:32:53.609Z,5.40
2019-01-20T06:35:22.622Z,5.70
2019-01-20T06:37:51.663Z,5.63
2019-01-20T06:40:20.676Z,5.30
2019-01-20T06:42:49.877Z,5.27
2019-01-20T06:45:18.918Z,5.17
2019-01-20T06:47:47.934Z,5.37
2019-01-20T06:50:17.508Z,5.60
2019-01-20T06:52:46.529Z,4.63
2019-01-20T06:55:15.564Z,6.03
2019-01-20T06:57:44.701Z,5.63
2019-01-20T07:00:20.543Z,4.90
2019-01-20T07:02:49.610Z,5.33
2019-01-20T07:05:19.073Z,5.27
2019-01-20T07:07:48.125Z,5.97
2019-01-20T07:10:17.788Z,5.90
2019-01-20T07:12:49.120Z,5.23
2019-01-20T07:15:22.912Z,6.27
2019-01-20T07:17:51.928Z,5.63
2019-01-20T07:20:21.080Z,5.87
2019-01-20T07:22:50.110Z,5.80
2019-01-20T07:25:19.155Z,4.80
2019-01-20T07:27:48.143Z,5.33
2019-01-20T07:30:23.809Z,5.80
2019-01-20T07:32:52.837Z,6.00
2019-01-20T07:35:22.002Z,5.50
2019-01-20T07:37:51.169Z,5.57
2019-01-20T07:40:22.014Z,6.00
2019-01-20T07:42:51.079Z,6.40
2019-01-20T07:45:20.129Z,6.13
2019-01-20T07:47:49.132Z,5.87
2019-01-20T07:50:20.081Z,5.67
2019-01-20T07:52:49.334Z,6.00
2019-01-20T07:55:18.349Z,6.00
2019-01-20T07:57:47.407Z,6.17
2019-01-20T08:00:18.219Z,5.37
2019-01-20T08:02:48.009Z,5.73
2019-01-20T08:05:17.798Z,5.97
2019-01-20T08:07:46.799Z,6.10
2019-01-20T08:10:24.068Z,6.30
2019-01-20T08:12:53.119Z,7.37
2019-01-20T08:15:22.143Z,6.00
2019-01-20T08:17:52.325Z,5.83
2019-01-20T08:20:21.889Z,6.60
2019-01-20T08:22:50.941Z,6.13
2019-01-20T08:25:20.295Z,6.37
2019-01-20T08:27:49.341Z,6.37
2019-01-20T08:30:20.137Z,6.60
2019-01-20T08:32:49.181Z,6.43
2019-01-20T08:35:18.951Z,7.40
2019-01-20T08:37:47.973Z,7.03
2019-01-20T08:40:19.470Z,7.00
2019-01-20T08:42:48.756Z,6.77
2019-01-20T08:46:10.877Z,6.57
2019-01-20T08:48:39.912Z,6.60
2019-01-20T08:51:08.937Z,6.20
2019-01-20T08:53:37.968Z,6.57
2019-01-20T08:56:07.001Z,6.07
2019-01-20T08:58:36.049Z,6.50
2019-01-20T09:01:05.406Z,6.70
2019-01-20T09:03:34.454Z,6.40
2019-01-20T09:06:03.488Z,6.80
2019-01-20T09:08:32.530Z,6.60
2019-01-20T09:11:01.569Z,7.13
2019-01-20T09:13:39.342Z,7.00
2019-01-20T09:16:03.701Z,7.00
2019-01-20T09:18:32.753Z,6.93
2019-01-20T09:21:01.792Z,7.17
2019-01-20T09:23:30.812Z,6.57
2019-01-20T09:25:59.861Z,6.87
2019-01-20T09:28:28.897Z,5.87
2019-01-20T09:30:57.952Z,6.23
2019-01-20T09:33:26.868Z,5.90
2019-01-20T09:35:55.811Z,5.87
2019-01-20T09:38:24.847Z,5.70
2019-01-20T09:40:53.901Z,5.30
2019-01-20T09:43:22.910Z,5.87
2019-01-20T09:45:52.995Z,6.10
2019-01-20T09:48:22.021Z,5.50
2019-01-20T09:50:51.009Z,6.07
2019-01-20T09:53:19.916Z,7.17
2019-01-20T09:55:48.964Z,6.60
2019-01-20T09:58:19.497Z,6.13
2019-01-20T10:00:48.538Z,5.80
2019-01-20T10:03:19.003Z,5.93
2019-01-20T10:05:48.054Z,6.30
2019-01-20T10:08:17.109Z,5.57
2019-01-20T10:10:46.161Z,5.80
2019-01-20T10:13:15.172Z,6.20
2019-01-20T10:15:44.221Z,6.10
2019-01-20T10:18:13.250Z,5.37
2019-01-20T10:20:42.293Z,6.13
2019-01-20T10:23:12.631Z,6.13
2019-01-20T10:25:41.680Z,6.00
2019-01-20T10:28:12.941Z,5.50
2019-01-20T10:30:41.991Z,5.77
2019-01-20T10:33:11.053Z,5.23
2019-01-20T10:35:47.849Z,5.93
2019-01-20T10:38:16.917Z,5.03
2019-01-20T10:40:45.967Z,6.07
2019-01-20T10:43:15.022Z,4.87
2019-01-20T10:45:44.129Z,5.40
2019-01-20T10:48:13.353Z,5.60
2019-01-20T10:50:42.401Z,4.97
2019-01-20T10:53:13.140Z,6.10
2019-01-20T10:55:42.152Z,4.80
2019-01-20T10:58:11.188Z,5.77
2019-01-20T11:00:41.102Z,5.23
2019-01-20T11:03:10.141Z,4.93
2019-01-20T11:05:39.252Z,6.03
2019-01-20T11:08:08.298Z,5.17
2019-01-20T11:10:37.317Z,5.47
2019-01-20T11:13:06.832Z,5.37
2019-01-20T11:15:36.056Z,5.23
2019-01-20T11:18:06.136Z,4.87
2019-01-20T11:20:35.324Z,5.93
2019-01-20T11:23:04.388Z,6.00
2019-01-20T11:25:36.461Z,5.30
2019-01-20T11:28:05.514Z,5.80
2019-01-20T11:30:34.745Z,5.67
2019-01-20T11:33:03.889Z,5.77
2019-01-20T11:35:32.998Z,5.73
2019-01-20T11:38:02.293Z,6.53
2019-01-20T11:40:31.311Z,6.17
2019-01-20T11:43:00.353Z,5.80
2019-01-20T11:45:30.253Z,5.90
2019-01-20T11:47:59.484Z,6.10
2019-01-20T11:50:28.757Z,5.60
2019-01-20T11:52:58.070Z,5.03
2019-01-20T11:55:27.093Z,5.60
2019-01-20T11:57:56.181Z,6.60
2019-01-20T12:00:30.724Z,6.90
2019-01-20T12:03:01.198Z,5.70
2019-01-20T12:05:31.238Z,6.97
2019-01-20T12:08:00.320Z,6.13
2019-01-20T12:10:29.385Z,6.07
2019-01-20T12:13:09.193Z,5.90
2019-01-20T12:15:38.298Z,6.47
2019-01-20T12:18:07.541Z,6.17
2019-01-20T12:20:36.586Z,6.27
2019-01-20T12:23:05.601Z,5.90
2019-01-20T12:25:34.719Z,6.33
2019-01-20T12:28:03.983Z,6.70
2019-01-20T12:30:34.644Z,6.10
2019-01-20T12:33:04.887Z,5.40
2019-01-20T12:35:33.955Z,6.70
2019-01-20T12:38:03.589Z,5.77
2019-01-20T12:40:38.324Z,6.07
2019-01-20T12:43:08.363Z,6.27
2019-01-20T12:45:38.227Z,6.00
2019-01-20T12:48:08.184Z,5.47
2019-01-20T12:50:37.913Z,6.30
2019-01-20T12:53:09.037Z,5.87
2019-01-20T12:55:38.710Z,5.50
2019-01-20T12:58:09.051Z,5.80
2019-01-20T13:00:38.134Z,5.70
2019-01-20T13:03:08.289Z,5.27
2019-01-20T13:05:37.944Z,6.50
2019-01-20T13:08:07.550Z,5.70
2019-01-20T13:10:37.471Z,7.00
2019-01-20T13:13:07.217Z,5.40
2019-01-20T13:15:36.940Z,5.63
2019-01-20T13:18:06.556Z,5.43
2019-01-20T13:20:35.966Z,5.80
2019-01-20T13:23:05.828Z,6.00
2019-01-20T13:25:35.571Z,6.20
2019-01-20T13:28:05.608Z,5.33
2019-01-20T13:30:35.621Z,5.50
2019-01-20T13:33:05.419Z,5.77
2019-01-20T13:35:35.108Z,6.10
2019-01-20T13:38:10.336Z,5.47
2019-01-20T13:41:00.386Z,5.47
2019-01-20T13:43:30.180Z,5.70
2019-01-20T13:45:59.798Z,5.33
2019-01-20T13:48:28.936Z,6.30
2019-01-20T13:50:57.960Z,5.43
2019-01-20T13:53:27.025Z,5.27
2019-01-20T13:56:01.122Z,5.93
2019-01-20T13:58:26.695Z,6.47
2019-01-20T14:00:55.747Z,4.83
2019-01-20T14:03:24.759Z,5.77
2019-01-20T14:05:53.804Z,5.63
2019-01-20T14:08:22.904Z,5.90
2019-01-20T14:10:51.996Z,6.10
2019-01-20T14:13:21.048Z,6.00
2019-01-20T14:15:50.082Z,6.00
2019-01-20T14:18:19.130Z,5.90
2019-01-20T14:20:48.205Z,5.70
2019-01-20T14:23:17.221Z,5.97
2019-01-20T14:25:46.252Z,5.97
2019-01-20T14:28:15.297Z,5.90
2019-01-20T14:30:44.405Z,5.40
2019-01-20T14:33:13.450Z,4.97
2019-01-20T14:35:42.675Z,5.60
2019-01-20T14:38:11.744Z,5.50
2019-01-20T14:40:40.761Z,5.37
2019-01-20T14:43:09.796Z,6.70
2019-01-20T14:45:38.828Z,6.47
2019-01-20T14:48:08.161Z,6.47
2019-01-20T14:50:37.214Z,6.67
2019-01-20T14:53:08.620Z,6.00
2019-01-20T14:55:37.638Z,6.07
2019-01-20T14:58:06.820Z,5.53
2019-01-20T15:00:36.948Z,6.17
2019-01-20T15:03:06.850Z,7.20
2019-01-20T15:05:35.939Z,6.00
2019-01-20T15:08:05.874Z,5.20
2019-01-20T15:10:34.913Z,5.83
2019-01-20T15:13:03.944Z,5.80
2019-01-20T15:15:35.464Z,5.73
2019-01-20T15:18:05.249Z,6.20
2019-01-20T15:20:34.384Z,6.00
2019-01-20T15:23:03.409Z,5.77
2019-01-20T15:25:32.688Z,5.70
2019-01-20T15:28:01.718Z,5.70
2019-01-20T15:30:31.385Z,5.20
2019-01-20T15:33:01.714Z,5.93
2019-01-20T15:35:30.769Z,6.00
2019-01-20T15:37:59.805Z,6.17
2019-01-20T15:40:28.841Z,5.23
2019-01-20T15:42:57.872Z,6.03
2019-01-20T15:45:26.910Z,6.20
2019-01-20T15:47:55.953Z,6.20
2019-01-20T15:50:27.297Z,5.87
2019-01-20T15:52:56.346Z,6.43
2019-01-20T15:55:25.469Z,6.60
2019-01-20T15:57:54.400Z,6.73
2019-01-20T16:00:54.842Z,6.17
2019-01-20T16:03:35.792Z,7.77
2019-01-20T16:06:17.240Z,6.07
2019-01-20T16:11:42.901Z,6.40
2019-01-20T16:17:07.789Z,6.50
2019-01-20T16:22:34.299Z,6.20
2019-01-20T16:27:59.309Z,6.00
2019-01-20T16:30:41.658Z,6.03
2019-01-20T16:33:24.955Z,6.33
2019-01-20T16:36:05.087Z,6.37
2019-01-20T16:38:46.157Z,5.83
2019-01-20T16:41:27.081Z,6.67
2019-01-20T16:44:07.873Z,5.70
2019-01-20T16:49:38.321Z,6.53
2019-01-20T16:55:05.837Z,6.93
2019-01-20T16:57:46.747Z,6.93
2019-01-20T17:00:27.361Z,7.03
2019-01-20T17:03:08.565Z,7.03
2019-01-20T17:05:50.178Z,7.73
2019-01-20T17:11:15.818Z,7.23
2019-01-20T17:13:57.201Z,6.73
2019-01-20T17:16:37.929Z,7.47
2019-01-20T17:22:02.702Z,7.60
2019-01-20T17:24:42.438Z,7.30
2019-01-20T17:27:23.854Z,7.30
2019-01-20T17:32:48.677Z,7.33
2019-01-20T17:35:30.566Z,7.60
2019-01-20T17:38:11.017Z,8.30
2019-01-20T17:40:52.231Z,7.30
2019-01-20T17:46:19.416Z,7.40
2019-01-20T17:49:00.173Z,7.93
2019-01-20T17:51:40.825Z,6.80
2019-01-20T17:57:07.025Z,7.23
2019-01-20T17:59:48.087Z,7.10
2019-01-20T18:02:29.409Z,7.60
2019-01-20T18:07:54.774Z,6.43
2019-01-20T18:13:20.534Z,7.17
2019-01-20T18:18:48.641Z,7.90
2019-01-20T18:24:14.457Z,7.03
2019-01-20T18:29:40.929Z,8.30
2019-01-20T18:35:08.194Z,7.37
2019-01-20T18:37:48.938Z,8.47
2019-01-20T18:43:14.046Z,6.67
2019-01-20T18:48:39.362Z,7.00
2019-01-20T18:53:58.982Z,7.37
2019-01-20T18:59:24.667Z,7.17
2019-01-20T19:02:06.502Z,7.90
2019-01-20T19:04:47.237Z,7.33
2019-01-20T19:10:15.226Z,7.50
2019-01-20T19:12:55.017Z,7.07
2019-01-20T19:15:36.387Z,7.73
2019-01-20T19:18:19.140Z,6.87
2019-01-20T19:20:58.982Z,6.97
2019-01-20T19:26:24.325Z,6.97
2019-01-20T19:29:05.471Z,7.90
2019-01-20T19:31:46.942Z,8.40
2019-01-20T19:34:28.489Z,7.47
2019-01-20T19:37:09.841Z,6.93
2019-01-20T19:42:35.961Z,8.07
2019-01-20T19:47:55.398Z,8.07
2019-01-20T19:50:36.518Z,7.97
2019-01-20T19:53:17.698Z,7.23
2019-01-20T19:58:44.989Z,7.57
2019-01-20T20:01:30.747Z,7.60
2019-01-20T20:04:08.815Z,7.73
2019-01-20T20:06:51.657Z,7.87
2019-01-20T20:09:33.032Z,8.10
2019-01-20T20:12:14.190Z,8.47
2019-01-20T20:15:00.685Z,8.27
2019-01-20T20:17:42.116Z,7.80
2019-01-20T20:20:23.068Z,8.30
2019-01-20T20:23:04.495Z,7.17
2019-01-20T20:25:45.765Z,7.90
2019-01-20T20:28:27.006Z,8.70
2019-01-20T20:31:08.193Z,9.00
2019-01-20T20:33:49.477Z,7.97
2019-01-20T20:36:30.398Z,7.87
2019-01-20T20:39:11.404Z,7.47
2019-01-20T20:41:51.938Z,8.80
2019-01-20T20:47:17.869Z,8.83
2019-01-20T20:49:59.201Z,7.73
2019-01-20T20:52:45.997Z,7.50
2019-01-20T20:55:23.553Z,6.70
2019-01-20T20:58:04.014Z,7.20
2019-01-20T21:03:25.197Z,7.47
2019-01-20T21:06:06.605Z,7.80
2019-01-20T21:08:48.743Z,7.60
2019-01-20T21:14:15.200Z,7.10
2019-01-20T21:16:56.640Z,7.77
2019-01-20T21:19:38.147Z,7.07
2019-01-20T21:25:07.153Z,7.27
2019-01-20T21:27:46.593Z,7.33
2019-01-20T21:30:28.184Z,7.60
2019-01-20T21:33:09.238Z,8.03
2019-01-20T21:35:50.377Z,7.60
2019-01-20T21:41:16.040Z,7.17
2019-01-20T21:46:45.390Z,7.10
2019-01-20T21:52:03.831Z,6.40
2019-01-20T21:54:44.227Z,6.83
2019-01-20T21:57:24.927Z,7.27
2019-01-20T22:00:06.126Z,6.90
2019-01-20T22:02:47.090Z,7.93
2019-01-20T22:05:28.386Z,7.33
2019-01-20T22:10:55.213Z,6.43
2019-01-20T22:13:36.397Z,7.40
2019-01-20T22:16:16.970Z,7.87
2019-01-20T22:18:58.460Z,6.70
2019-01-20T22:21:40.249Z,6.50
2019-01-20T22:27:05.210Z,7.10
2019-01-20T22:29:46.480Z,7.07
2019-01-20T22:32:27.052Z,6.40
2019-01-20T22:35:09.385Z,6.40
2019-01-20T22:37:50.556Z,7.73
2019-01-20T22:43:17.768Z,7.50
2019-01-20T22:45:58.922Z,7.00
2019-01-20T22:48:38.534Z,7.40
2019-01-20T22:51:19.770Z,8.17
2019-01-20T22:54:01.122Z,6.57
2019-01-20T22:56:42.285Z,8.60
2019-01-20T23:02:09.897Z,7.27
2019-01-20T23:04:50.549Z,7.20
2019-01-20T23:07:31.782Z,6.17
2019-01-20T23:12:58.211Z,6.93
2019-01-20T23:15:39.313Z,7.33
2019-01-20T23:18:20.055Z,7.20
2019-01-20T23:21:00.889Z,6.90
2019-01-20T23:23:41.483Z,7.07
2019-01-20T23:26:22.242Z,6.70
2019-01-20T23:29:03.030Z,7.57
2019-01-20T23:31:44.384Z,7.27
2019-01-20T23:34:25.030Z,6.90
2019-01-20T23:37:06.553Z,7.20
2019-01-20T23:39:47.796Z,7.70
2019-01-20T23:42:28.402Z,6.40
2019-01-20T23:45:09.872Z,6.90
2019-01-20T23:47:51.421Z,7.10
2019-01-20T23:50:32.268Z,6.93
2019-01-20T23:53:13.098Z,5.90
2019-01-20T23:55:54.369Z,6.70
2019-01-20T23:58:35.982Z,7.73
